Time;durP1;ratioP1;P1;durP2;ratioP2;P2;SDS_P1;SDS_P2;PMS_P1;PMS_P2;Temp;Humidity;BMP_temperature;BMP_pressure;BME280_temperature;BME280_humidity;BME280_pressure;Samples;Min_cycle;Max_cycle;Signal;HPM_P1;HPM_P2
2023/06/30 00:02:18;;;;;;;16.13;6.43;;;;;;;15.35;100.00;101532.16;5222888;28;20028;-69
2023/06/30 00:04:48;;;;;;;9.93;5.93;;;;;;;15.33;100.00;101528.81;5223483;28;20032;-69
2023/06/30 00:07:20;;;;;;;12.55;6.15;;;;;;;15.33;100.00;101533.38;5223209;28;20025;-70
2023/06/30 00:09:51;;;;;;;16.17;6.63;;;;;;;15.34;100.00;101529.66;5223398;28;20021;-69
2023/06/30 00:12:21;;;;;;;11.77;5.82;;;;;;;15.34;100.00;101522.38;5223697;28;20029;-70
2023/06/30 00:14:52;;;;;;;10.25;6.00;;;;;;;15.35;100.00;101525.94;5223005;28;20029;-69
2023/06/30 00:17:22;;;;;;;10.10;6.22;;;;;;;15.34;100.00;101521.53;5226747;28;20026;-69
2023/06/30 00:19:53;;;;;;;12.27;6.18;;;;;;;15.33;100.00;101517.16;5233231;28;20383;-69
2023/06/30 00:22:23;;;;;;;16.35;6.15;;;;;;;15.32;100.00;101513.63;5222970;28;20020;-69
2023/06/30 00:24:55;;;;;;;12.65;6.97;;;;;;;15.34;100.00;101510.72;5223442;28;20021;-69
2023/06/30 00:27:25;;;;;;;10.23;5.57;;;;;;;15.37;100.00;101513.09;5223040;28;20035;-69
2023/06/30 00:29:56;;;;;;;12.40;6.07;;;;;;;15.38;100.00;101509.34;5222115;28;20021;-69
2023/06/30 00:32:31;;;;;;;9.48;5.82;;;;;;;15.39;100.00;101506.47;5223611;28;20020;-68
2023/06/30 00:35:03;;;;;;;11.85;6.07;;;;;;;15.38;100.00;101498.53;5222679;28;20031;-69
2023/06/30 00:37:33;;;;;;;9.57;5.45;;;;;;;15.35;100.00;101510.53;5222834;28;20458;-69
2023/06/30 00:40:04;;;;;;;12.32;5.93;;;;;;;15.29;100.00;101505.88;5223116;28;20155;-69
2023/06/30 00:42:35;;;;;;;15.73;5.70;;;;;;;15.23;100.00;101506.59;5223586;28;20021;-69
2023/06/30 00:45:06;;;;;;;15.48;5.65;;;;;;;15.19;100.00;101511.50;5222961;28;20025;-69
2023/06/30 00:47:37;;;;;;;14.45;5.53;;;;;;;15.15;100.00;101506.66;5222579;28;20032;-70
2023/06/30 00:50:08;;;;;;;8.18;5.32;;;;;;;15.10;100.00;101517.16;5223149;28;20466;-70
2023/06/30 00:52:42;;;;;;;15.23;5.78;;;;;;;15.07;100.00;101512.97;5223149;28;20032;-69
2023/06/30 00:55:13;;;;;;;14.02;5.88;;;;;;;15.07;100.00;101515.66;5223084;28;20110;-69
2023/06/30 00:57:43;;;;;;;10.75;5.18;;;;;;;15.06;100.00;101516.69;5222389;28;20155;-69
2023/06/30 01:00:15;;;;;;;11.80;5.53;;;;;;;15.06;100.00;101514.00;5223355;28;20116;-70
2023/06/30 01:03:01;;;;;;;12.13;5.57;;;;;;;15.07;100.00;101517.53;5223597;28;20029;-70
2023/06/30 01:05:44;;;;;;;14.07;5.18;;;;;;;15.08;100.00;101516.50;5223292;28;20025;-69
2023/06/30 01:08:20;;;;;;;8.25;4.90;;;;;;;15.08;100.00;101511.94;5223074;28;20470;-69
2023/06/30 01:10:53;;;;;;;16.83;5.68;;;;;;;15.06;100.00;101502.31;5223087;28;20033;-69
2023/06/30 01:13:24;;;;;;;20.00;6.05;;;;;;;15.08;100.00;101509.25;5223283;28;20375;-69
2023/06/30 01:15:57;;;;;;;12.50;5.68;;;;;;;15.10;100.00;101515.28;5222336;28;20028;-69
2023/06/30 01:18:32;;;;;;;9.95;5.43;;;;;;;15.12;100.00;101507.03;5222842;28;20056;-69
2023/06/30 01:21:05;;;;;;;16.08;5.75;;;;;;;15.12;100.00;101512.44;5223056;28;20025;-69
2023/06/30 01:23:38;;;;;;;12.77;5.45;;;;;;;15.14;100.00;101513.91;5222982;28;20021;-69
2023/06/30 01:26:10;;;;;;;11.18;5.38;;;;;;;15.13;100.00;101498.72;5223973;28;20104;-69
2023/06/30 01:28:40;;;;;;;9.32;4.78;;;;;;;15.14;100.00;101503.09;5226956;28;20043;-69
2023/06/30 01:31:11;;;;;;;10.27;5.47;;;;;;;15.16;100.00;101505.63;5226799;28;20475;-69
2023/06/30 01:33:41;;;;;;;11.52;4.65;;;;;;;15.18;100.00;101507.13;5226921;28;20036;-69
2023/06/30 01:36:12;;;;;;;15.68;4.30;;;;;;;15.19;100.00;101494.47;5226508;28;20060;-69
2023/06/30 01:38:42;;;;;;;10.07;4.53;;;;;;;15.18;100.00;101495.50;5226971;28;20028;-69
2023/06/30 01:41:13;;;;;;;11.40;4.35;;;;;;;15.22;100.00;101489.53;5226767;28;20071;-69
2023/06/30 01:43:44;;;;;;;10.65;4.32;;;;;;;15.21;100.00;101482.47;5226597;28;20052;-68
2023/06/30 01:46:16;;;;;;;11.13;3.97;;;;;;;15.18;100.00;101484.69;5226074;28;20074;-69
2023/06/30 01:48:47;;;;;;;11.13;3.67;;;;;;;15.16;100.00;101486.69;5226400;28;20025;-69
2023/06/30 01:51:18;;;;;;;12.52;3.78;;;;;;;15.10;100.00;101484.72;5226576;28;20032;-69
2023/06/30 01:53:56;;;;;;;9.82;4.30;;;;;;;15.02;100.00;101493.75;5226355;28;20056;-69
2023/06/30 01:56:30;;;;;;;9.55;4.20;;;;;;;14.94;100.00;101491.09;5225827;28;20028;-69
2023/06/30 01:59:01;;;;;;;11.45;4.40;;;;;;;14.90;100.00;101487.91;5226455;28;20025;-69
2023/06/30 02:01:32;;;;;;;10.30;3.90;;;;;;;14.79;100.00;101485.63;5226387;28;20256;-68
2023/06/30 02:04:03;;;;;;;12.77;4.57;;;;;;;14.70;100.00;101490.22;5226346;28;20484;-69
2023/06/30 02:06:37;;;;;;;13.15;4.10;;;;;;;14.61;100.00;101496.69;5225547;28;20025;-69
2023/06/30 02:09:08;;;;;;;7.65;4.25;;;;;;;14.51;100.00;101487.97;5226343;28;20029;-69
2023/06/30 02:11:39;;;;;;;12.43;4.90;;;;;;;14.43;100.00;101490.69;5226334;28;20113;-69
2023/06/30 02:14:14;;;;;;;;;;;;;;;14.31;100.00;101486.66;5226543;28;20021;-69
2023/06/30 02:16:44;;;;;;;13.80;4.35;;;;;;;14.18;100.00;101488.06;5225284;28;19908;-69
2023/06/30 02:19:15;;;;;;;13.27;4.65;;;;;;;14.10;100.00;101489.94;5225745;28;20033;-69
2023/06/30 02:21:46;;;;;;;11.23;5.00;;;;;;;14.15;100.00;101495.66;5226247;28;20024;-69
2023/06/30 02:24:16;;;;;;;12.98;4.78;;;;;;;14.20;100.00;101488.72;5225986;28;20043;-69
2023/06/30 02:26:47;;;;;;;10.68;5.10;;;;;;;14.21;100.00;101493.13;5225465;28;20029;-69
2023/06/30 02:29:20;;;;;;;13.57;5.68;;;;;;;14.16;100.00;101498.22;5225716;28;20029;-69
2023/06/30 02:31:51;;;;;;;12.52;4.85;;;;;;;14.14;100.00;101500.22;5225893;28;20035;-69
2023/06/30 02:34:21;;;;;;;13.25;5.93;;;;;;;14.14;100.00;101504.78;5225896;28;20107;-69
2023/06/30 02:36:51;;;;;;;9.07;4.53;;;;;;;14.07;100.00;101509.22;5225033;28;20087;-68
2023/06/30 02:39:22;;;;;;;10.50;5.05;;;;;;;13.95;100.00;101504.16;5225674;28;20545;-69
2023/06/30 02:41:53;;;;;;;14.57;5.50;;;;;;;13.86;100.00;101504.38;5225407;28;20040;-69
2023/06/30 02:44:23;;;;;;;19.70;5.43;;;;;;;13.77;100.00;101503.53;5225835;28;20017;-69
2023/06/30 02:46:53;;;;;;;13.73;5.07;;;;;;;13.71;100.00;101513.16;5225225;28;20025;-69
2023/06/30 02:49:24;;;;;;;10.68;4.80;;;;;;;13.64;100.00;101520.22;5225517;28;20028;-69
2023/06/30 02:51:54;;;;;;;13.77;5.28;;;;;;;13.59;100.00;101513.66;5225780;28;20031;-69
2023/06/30 02:54:25;;;;;;;11.85;6.05;;;;;;;13.53;100.00;101515.19;5225126;28;20051;-69
2023/06/30 02:56:55;;;;;;;18.70;6.20;;;;;;;13.45;100.00;101515.16;5225040;28;20024;-69
2023/06/30 02:59:26;;;;;;;14.52;5.90;;;;;;;13.37;100.00;101515.19;5225307;28;20021;-69
2023/06/30 03:01:58;;;;;;;12.27;5.50;;;;;;;13.32;100.00;101509.47;5225398;28;20028;-69
2023/06/30 03:04:29;;;;;;;15.45;5.38;;;;;;;13.23;100.00;101511.31;5225248;28;20021;-69
2023/06/30 03:06:59;;;;;;;15.73;5.50;;;;;;;13.11;100.00;101505.38;5224593;28;20044;-69
2023/06/30 03:09:30;;;;;;;12.43;5.63;;;;;;;12.99;100.00;101505.84;5225213;28;20025;-69
2023/06/30 03:12:00;;;;;;;13.32;5.88;;;;;;;12.88;100.00;101507.84;5225117;28;20115;-69
2023/06/30 03:14:31;;;;;;;14.00;5.82;;;;;;;12.80;100.00;101504.28;5225137;28;20021;-69
2023/06/30 03:17:01;;;;;;;17.80;6.47;;;;;;;12.75;100.00;101507.50;5224050;28;20032;-69
2023/06/30 03:19:32;;;;;;;17.42;5.75;;;;;;;12.69;100.00;101498.22;5224907;28;20466;-69
2023/06/30 03:22:03;;;;;;;16.63;6.90;;;;;;;12.66;100.00;101495.88;5223682;28;20040;-69
2023/06/30 03:24:34;;;;;;;19.35;6.90;;;;;;;12.62;100.00;101501.75;5225105;28;20025;-69
2023/06/30 03:27:04;;;;;;;22.70;5.93;;;;;;;12.55;100.00;101490.78;5224338;28;20036;-69
2023/06/30 03:29:36;;;;;;;14.30;6.68;;;;;;;12.51;100.00;101492.13;5224828;28;20017;-69
2023/06/30 03:32:06;;;;;;;15.07;6.47;;;;;;;12.46;100.00;101489.06;5224518;28;20037;-69
2023/06/30 03:34:37;;;;;;;14.98;7.18;;;;;;;12.42;100.00;101490.41;5224849;28;20029;-69
2023/06/30 03:37:07;;;;;;;19.63;7.45;;;;;;;12.37;100.00;101488.19;5224346;28;20100;-69
2023/06/30 03:39:38;;;;;;;15.35;7.10;;;;;;;12.30;100.00;101483.59;5224989;28;20025;-69
2023/06/30 03:42:09;;;;;;;14.43;5.82;;;;;;;12.26;100.00;101487.66;5224573;28;20094;-69
2023/06/30 03:44:39;;;;;;;15.98;6.95;;;;;;;12.22;100.00;101487.13;5224221;28;20043;-69
2023/06/30 03:47:10;;;;;;;18.27;7.57;;;;;;;12.21;100.00;101498.06;5224103;28;20501;-69
2023/06/30 03:49:40;;;;;;;16.40;6.53;;;;;;;12.21;100.00;101498.91;5223782;28;20035;-69
2023/06/30 03:52:11;;;;;;;18.05;8.55;;;;;;;12.21;100.00;101495.38;5224560;28;20028;-69
2023/06/30 03:54:42;;;;;;;15.15;7.55;;;;;;;12.21;100.00;101493.53;5224248;28;20033;-68
2023/06/30 03:57:12;;;;;;;22.88;7.10;;;;;;;12.16;100.00;101499.38;5223866;28;20029;-69
2023/06/30 03:59:43;;;;;;;18.88;8.55;;;;;;;12.11;100.00;101495.50;5224266;28;20027;-68
2023/06/30 04:02:13;;;;;;;21.48;8.73;;;;;;;12.08;100.00;101502.00;5224295;28;20024;-68
2023/06/30 04:04:44;;;;;;;20.45;7.97;;;;;;;12.08;100.00;101502.00;5224191;28;20044;-68
2023/06/30 04:07:14;;;;;;;13.77;6.97;;;;;;;12.12;100.00;101491.78;5223530;28;20075;-68
2023/06/30 04:09:45;;;;;;;16.08;6.95;;;;;;;12.12;100.00;101492.63;5224051;28;20025;-68
2023/06/30 04:12:15;;;;;;;15.65;7.47;;;;;;;12.10;100.00;101489.28;5224002;28;20479;-68
2023/06/30 04:14:46;;;;;;;14.07;7.30;;;;;;;12.10;100.00;101502.72;5224078;28;20021;-68
2023/06/30 04:17:16;;;;;;;17.10;7.28;;;;;;;12.12;100.00;101497.16;5223208;28;20104;-68
2023/06/30 04:19:47;;;;;;;20.15;7.78;;;;;;;12.11;100.00;101506.25;5223784;28;20564;-68
2023/06/30 04:22:17;;;;;;;14.45;7.38;;;;;;;12.11;100.00;101501.72;5223615;28;20029;-69
2023/06/30 04:24:48;;;;;;;21.45;8.52;;;;;;;12.10;100.00;101502.72;5223870;28;20028;-69
2023/06/30 04:27:18;;;;;;;18.23;8.00;;;;;;;12.14;100.00;101505.91;5223303;28;20217;-68
2023/06/30 04:29:49;;;;;;;23.35;9.15;;;;;;;12.19;100.00;101500.88;5223619;28;20025;-69
2023/06/30 04:32:19;;;;;;;19.58;9.77;;;;;;;12.23;100.00;101510.31;5223423;28;20470;-69
2023/06/30 04:34:50;;;;;;;21.50;10.10;;;;;;;12.26;100.00;101511.88;5223631;28;20033;-68
2023/06/30 04:37:20;;;;;;;15.63;7.50;;;;;;;12.30;100.00;101507.81;5223246;28;20115;-69
2023/06/30 04:39:51;;;;;;;18.77;8.82;;;;;;;12.30;100.00;101500.63;5223569;28;20025;-68
2023/06/30 04:42:21;;;;;;;23.50;10.65;;;;;;;12.38;100.00;101499.81;5223791;28;20132;-68
2023/06/30 04:44:52;;;;;;;20.73;8.50;;;;;;;12.45;100.00;101500.84;5223187;28;20115;-68
2023/06/30 04:47:22;;;;;;;24.70;8.48;;;;;;;12.53;100.00;101498.16;5223074;28;20017;-68
2023/06/30 04:49:54;;;;;;;19.38;9.10;;;;;;;12.61;100.00;101497.38;5223407;28;20117;-69
2023/06/30 04:52:24;;;;;;;20.30;9.50;;;;;;;12.69;100.00;101498.22;5223668;28;20172;-70
2023/06/30 04:54:56;;;;;;;19.77;8.93;;;;;;;12.78;100.00;101490.16;5223332;28;20028;-70
2023/06/30 04:57:26;;;;;;;24.55;8.30;;;;;;;12.87;100.00;101498.09;5222766;28;20055;-70
2023/06/30 04:59:57;;;;;;;19.40;9.10;;;;;;;12.99;100.00;101495.91;5223453;28;20509;-70
2023/06/30 05:02:27;;;;;;;24.10;9.73;;;;;;;13.09;100.00;101490.38;5227248;28;20078;-69
2023/06/30 05:04:58;;;;;;;26.45;8.85;;;;;;;13.20;100.00;101495.44;5227707;28;20098;-69
2023/06/30 05:07:28;;;;;;;26.98;9.85;;;;;;;13.28;100.00;101495.47;5227090;28;20054;-69
2023/06/30 05:09:59;;;;;;;21.90;8.82;;;;;;;13.38;100.00;101489.91;5227381;28;20037;-69
2023/06/30 05:12:29;;;;;;;17.67;8.50;;;;;;;13.46;100.00;101490.78;5226998;28;20475;-69
2023/06/30 05:15:00;;;;;;;19.80;8.95;;;;;;;13.55;100.00;101486.19;5214332;28;20041;-70
2023/06/30 05:17:30;;;;;;;19.73;8.90;;;;;;;13.65;100.00;101486.00;5224870;28;20024;-70
2023/06/30 05:20:05;;;;;;;19.83;8.05;;;;;;;13.74;100.00;101491.22;5227488;28;20149;-70
2023/06/30 05:22:35;;;;;;;24.07;8.80;;;;;;;13.85;100.00;101492.72;5226956;28;20052;-70
2023/06/30 05:25:06;;;;;;;21.13;8.63;;;;;;;13.97;100.00;101493.22;5227246;28;20617;-70
2023/06/30 05:27:36;;;;;;;21.58;8.25;;;;;;;14.08;100.00;101489.28;5226719;28;20048;-69
2023/06/30 05:30:07;;;;;;;23.05;8.82;;;;;;;14.18;100.00;101498.03;5227079;28;20029;-70
2023/06/30 05:32:38;;;;;;;20.38;8.52;;;;;;;14.30;100.00;101495.78;5227186;28;20128;-70
2023/06/30 05:35:09;;;;;;;19.42;8.18;;;;;;;14.36;100.00;101493.25;5226999;28;20498;-70
2023/06/30 05:37:39;;;;;;;29.35;8.20;;;;;;;14.50;100.00;101494.38;5226507;28;20036;-70
2023/06/30 05:40:10;;;;;;;21.42;7.93;;;;;;;14.61;100.00;101491.31;5226849;28;20058;-70
2023/06/30 05:42:41;;;;;;;21.30;6.90;;;;;;;14.73;100.00;101497.13;5226971;28;20115;-70
2023/06/30 05:45:11;;;;;;;22.70;7.13;;;;;;;14.86;100.00;101493.84;5226404;28;20666;-70
2023/06/30 05:47:42;;;;;;;17.50;6.72;;;;;;;14.99;100.00;101486.00;5226622;28;20394;-70
2023/06/30 05:50:12;;;;;;;15.98;6.93;;;;;;;15.10;100.00;101490.97;5226746;28;20017;-70
2023/06/30 05:52:43;;;;;;;18.77;6.82;;;;;;;15.26;100.00;101493.56;5226734;28;20071;-70
2023/06/30 05:55:14;;;;;;;19.75;6.55;;;;;;;15.41;100.00;101499.03;5226830;28;20025;-70
2023/06/30 05:57:44;;;;;;;16.52;6.38;;;;;;;15.52;100.00;101489.63;5225930;28;20108;-70
2023/06/30 06:00:16;;;;;;;17.33;6.22;;;;;;;15.69;100.00;101490.34;5226594;28;20032;-70
2023/06/30 06:02:46;;;;;;;12.88;5.70;;;;;;;15.93;100.00;101483.84;5226628;28;20058;-70
2023/06/30 06:05:17;;;;;;;15.35;5.57;;;;;;;16.57;100.00;101490.31;5226369;28;20035;-70
2023/06/30 06:07:48;;;;;;;16.80;5.55;;;;;;;17.16;100.00;101491.19;5226349;28;20417;-70
2023/06/30 06:10:19;;;;;;;12.15;4.15;;;;;;;18.22;100.00;101492.81;5226568;28;20561;-70
2023/06/30 06:12:52;;;;;;;8.88;3.55;;;;;;;19.36;100.00;101492.97;5225751;28;20111;-70
2023/06/30 06:15:23;;;;;;;14.40;3.15;;;;;;;20.17;100.00;101472.81;5226118;28;20470;-70
2023/06/30 06:17:53;;;;;;;10.20;3.20;;;;;;;21.15;100.00;101483.47;5233779;28;20082;-70
2023/06/30 06:20:24;;;;;;;9.07;2.67;;;;;;;22.07;100.00;101475.50;5231298;28;20036;-70
2023/06/30 06:22:54;;;;;;;7.30;2.60;;;;;;;22.14;100.00;101488.09;5226111;28;20033;-70
2023/06/30 06:25:25;;;;;;;11.63;3.58;;;;;;;21.87;100.00;101490.22;5226078;28;20032;-70
2023/06/30 06:27:55;;;;;;;7.25;3.17;;;;;;;22.57;100.00;101491.75;5226081;28;20025;-70
2023/06/30 06:30:26;;;;;;;11.02;3.67;;;;;;;22.62;100.00;101494.63;5226071;28;20032;-70
2023/06/30 06:32:56;;;;;;;10.98;3.63;;;;;;;22.54;100.00;101486.75;5226234;28;20023;-70
2023/06/30 06:35:27;;;;;;;7.40;3.10;;;;;;;22.31;100.00;101493.75;5225358;28;20029;-70
2023/06/30 06:37:57;;;;;;;14.27;3.65;;;;;;;22.72;100.00;101493.03;5221924;28;20475;-70
2023/06/30 06:40:29;;;;;;;9.45;3.03;;;;;;;23.35;100.00;101494.44;5211527;28;20032;-70
2023/06/30 06:42:59;;;;;;;8.13;3.15;;;;;;;23.56;100.00;101493.03;5218676;28;20020;-71
2023/06/30 06:45:30;;;;;;;8.38;2.75;;;;;;;23.48;100.00;101494.22;5224217;28;20025;-70
2023/06/30 06:48:20;;;;;;;7.25;2.90;;;;;;;23.55;100.00;101485.91;5223553;28;20036;-70
2023/06/30 06:50:53;;;;;;;7.78;2.72;;;;;;;23.56;100.00;101492.22;5224137;28;20025;-70
2023/06/30 06:53:42;;;;;;;8.20;2.60;;;;;;;23.51;100.00;101488.28;5222939;28;20427;-70
2023/06/30 06:56:12;;;;;;;13.95;2.70;;;;;;;23.86;100.00;101501.19;5221754;28;20033;-70
2023/06/30 06:58:43;;;;;;;5.93;2.10;;;;;;;24.11;100.00;101497.34;5223784;28;20029;-70
2023/06/30 07:01:14;;;;;;;7.82;2.95;;;;;;;24.33;100.00;101500.28;5223773;28;20041;-70
2023/06/30 07:03:44;;;;;;;7.75;2.90;;;;;;;23.82;100.00;101491.75;5224043;28;20523;-70
2023/06/30 07:06:16;;;;;;;6.97;2.40;;;;;;;24.47;100.00;101482.50;5223374;28;20103;-70
2023/06/30 07:08:49;;;;;;;6.97;3.15;;;;;;;24.43;100.00;101479.41;5223140;28;20032;-71
2023/06/30 07:11:20;;;;;;;7.75;3.33;;;;;;;24.02;100.00;101489.47;5222926;28;20068;-70
2023/06/30 07:13:50;;;;;;;9.63;3.15;;;;;;;23.82;100.00;101480.81;5223694;28;20494;-70
2023/06/30 07:16:21;;;;;;;9.32;3.60;;;;;;;24.19;100.00;101480.50;5223187;28;20094;-70
2023/06/30 07:18:52;;;;;;;7.82;2.80;;;;;;;25.05;100.00;101487.75;5222971;28;20024;-70
2023/06/30 07:21:25;;;;;;;7.35;2.88;;;;;;;25.40;100.00;101489.47;5223564;28;20063;-70
2023/06/30 07:23:56;;;;;;;10.73;3.42;;;;;;;25.34;100.00;101495.94;5222730;28;20025;-70
2023/06/30 07:26:26;;;;;;;7.90;2.85;;;;;;;25.12;100.00;101492.28;5223250;28;20021;-70
2023/06/30 07:28:57;;;;;;;7.20;2.58;;;;;;;24.37;100.00;101491.38;5223207;28;20112;-70
2023/06/30 07:31:30;;;;;;;8.02;2.88;;;;;;;24.91;100.00;101494.63;5223260;28;20086;-71
2023/06/30 07:34:01;;;;;;;10.90;3.00;;;;;;;25.40;100.00;101492.22;5223579;28;20036;-71
2023/06/30 07:36:31;;;;;;;7.85;2.97;;;;;;;25.40;100.00;101500.44;5222954;28;20597;-71
2023/06/30 07:39:02;;;;;;;6.53;2.97;;;;;;;25.25;100.00;101495.56;5223338;28;20474;-71
2023/06/30 07:41:34;;;;;;;10.30;2.80;;;;;;;25.62;100.00;101503.28;5223290;28;20070;-70
2023/06/30 07:44:05;;;;;;;8.95;3.10;;;;;;;25.36;100.00;101504.78;5223464;28;20057;-70
2023/06/30 07:46:36;;;;;;;11.25;2.92;;;;;;;25.07;100.00;101503.19;5222750;28;20110;-71
2023/06/30 07:49:06;;;;;;;7.72;2.90;;;;;;;24.59;100.00;101499.75;5222861;28;20025;-70
2023/06/30 07:51:37;;;;;;;10.07;3.05;;;;;;;24.66;100.00;101497.72;5223151;28;20082;-70
2023/06/30 07:54:07;;;;;;;8.20;2.63;;;;;;;24.86;100.00;101502.78;5223160;28;20025;-71
2023/06/30 07:56:38;;;;;;;11.73;2.88;;;;;;;24.98;100.00;101498.03;5220782;28;20144;-70
2023/06/30 07:59:09;;;;;;;8.48;3.00;;;;;;;25.11;100.00;101496.13;5222848;28;20699;-70
2023/06/30 08:01:39;;;;;;;13.75;2.90;;;;;;;25.48;100.00;101500.03;5222985;28;20052;-70
2023/06/30 08:04:11;;;;;;;10.57;2.60;;;;;;;24.73;100.00;101505.78;5223101;28;20421;-71
2023/06/30 08:06:41;;;;;;;7.47;2.50;;;;;;;24.74;100.00;101494.56;5222317;28;20025;-70
2023/06/30 08:09:12;;;;;;;12.82;2.58;;;;;;;24.48;100.00;101485.00;5222238;28;20033;-71
2023/06/30 08:11:42;;;;;;;8.23;3.08;;;;;;;24.51;100.00;101497.41;5221808;28;20498;-71
2023/06/30 08:14:12;;;;;;;7.90;2.83;;;;;;;24.76;100.00;101495.16;5222448;28;20032;-71
2023/06/30 08:16:43;;;;;;;11.68;2.88;;;;;;;24.80;100.00;101498.28;5221715;28;20017;-71
2023/06/30 08:19:13;;;;;;;9.38;2.83;;;;;;;24.68;100.00;101497.47;5235173;28;20029;-71
2023/06/30 08:21:44;;;;;;;8.18;3.05;;;;;;;24.80;100.00;101487.28;5222270;28;20071;-71
2023/06/30 08:24:14;;;;;;;9.65;2.80;;;;;;;24.78;100.00;101487.50;5222366;28;20020;-71
2023/06/30 08:26:45;;;;;;;4.72;2.00;;;;;;;25.69;100.00;101490.19;5221933;28;20021;-71
2023/06/30 08:29:15;;;;;;;7.70;2.58;;;;;;;26.44;100.00;101488.81;5222160;28;20029;-71
2023/06/30 08:31:46;;;;;;;11.10;3.15;;;;;;;25.35;100.00;101494.03;5222186;28;20474;-71
2023/06/30 08:34:16;;;;;;;9.38;3.05;;;;;;;25.07;100.00;101486.72;5222021;28;20025;-71
2023/06/30 08:36:47;;;;;;;7.32;2.90;;;;;;;25.05;100.00;101484.16;5221503;28;20025;-71
2023/06/30 08:39:17;;;;;;;6.05;2.97;;;;;;;25.13;100.00;101499.44;5221868;28;20060;-71
2023/06/30 08:41:53;;;;;;;7.00;2.80;;;;;;;24.78;100.00;101489.44;5222006;28;20016;-72
2023/06/30 08:44:25;;;;;;;9.10;2.78;;;;;;;24.17;100.00;101502.69;5221602;28;20013;-71
2023/06/30 08:46:56;;;;;;;6.30;2.47;;;;;;;24.32;100.00;101487.66;5221331;28;20485;-71
2023/06/30 08:49:29;;;;;;;11.57;2.85;;;;;;;24.51;100.00;101476.31;5220074;28;20383;-71
2023/06/30 08:52:00;;;;;;;4.47;2.03;;;;;;;24.57;100.00;101482.72;5221951;28;20025;-71
2023/06/30 08:54:32;;;;;;;7.22;2.35;;;;;;;24.36;100.00;101473.25;5221459;28;20044;-71
2023/06/30 08:57:04;;;;;;;7.60;2.00;;;;;;;24.42;100.00;101480.50;5220823;28;20024;-71
2023/06/30 08:59:34;;;;;;;5.85;2.03;;;;;;;24.33;100.00;101473.69;5221273;28;20033;-71
2023/06/30 09:02:06;;;;;;;7.85;2.05;;;;;;;24.44;100.00;101459.13;5221584;28;20059;-72
2023/06/30 09:04:38;;;;;;;3.25;1.52;;;;;;;24.89;100.00;101472.06;5221522;28;20548;-71
2023/06/30 09:07:19;;;;;;;5.32;1.80;;;;;;;24.90;100.00;101462.78;5221000;28;20017;-71
2023/06/30 09:09:54;;;;;;;8.70;2.10;;;;;;;25.47;94.31;101467.34;5221368;28;20087;-71
2023/06/30 09:12:26;;;;;;;5.28;1.58;;;;;;;25.08;99.18;101463.66;5221710;28;20025;-71
2023/06/30 09:14:59;;;;;;;8.27;2.10;;;;;;;24.84;100.00;101462.91;5221406;28;20108;-71
2023/06/30 09:17:30;;;;;;;7.05;1.83;;;;;;;24.93;95.21;101469.66;5220380;28;20079;-71
2023/06/30 09:20:01;;;;;;;3.35;1.45;;;;;;;24.98;94.07;101465.09;5221131;28;20485;-71
2023/06/30 09:22:32;;;;;;;7.30;1.55;;;;;;;24.95;100.00;101453.78;5221063;28;20025;-71
2023/06/30 09:25:04;;;;;;;5.00;2.33;;;;;;;24.96;100.00;101456.31;5221266;28;20437;-71
2023/06/30 09:27:35;;;;;;;5.35;1.95;;;;;;;24.83;100.00;101455.78;5220938;28;20037;-71
2023/06/30 09:30:07;;;;;;;5.43;1.80;;;;;;;25.38;88.95;101464.16;5221247;28;20028;-72
2023/06/30 09:32:39;;;;;;;6.32;1.70;;;;;;;26.19;76.98;101455.47;5221711;28;20032;-72
2023/06/30 09:35:14;;;;;;;3.63;1.77;;;;;;;26.06;96.35;101453.94;5221644;28;20029;-71
2023/06/30 09:37:45;;;;;;;7.32;2.25;;;;;;;26.15;98.56;101446.06;5221422;28;20025;-74
2023/06/30 09:40:17;;;;;;;7.57;2.00;;;;;;;26.14;86.12;101458.16;5221493;28;20025;-72
2023/06/30 09:42:53;;;;;;;8.30;2.42;;;;;;;26.06;88.17;101460.28;5221865;28;20136;-72
2023/06/30 09:45:24;;;;;;;6.30;1.95;;;;;;;26.11;80.29;101458.69;5221715;28;20020;-72
2023/06/30 09:47:55;;;;;;;4.93;1.50;;;;;;;26.10;82.13;101460.56;5223703;28;20045;-72
2023/06/30 09:50:27;;;;;;;3.60;1.70;;;;;;;25.57;85.88;101451.84;5225815;28;20086;-72
2023/06/30 09:52:58;;;;;;;3.58;1.33;;;;;;;25.54;81.85;101441.34;5225253;28;20082;-72
2023/06/30 09:55:29;;;;;;;3.42;1.60;;;;;;;24.88;91.78;101440.22;5225185;28;20025;-71
2023/06/30 09:57:59;;;;;;;6.00;1.67;;;;;;;24.66;95.49;101439.28;5224410;28;20029;-71
2023/06/30 10:00:30;;;;;;;7.63;1.50;;;;;;;24.42;94.39;101442.09;5223594;28;20055;-71
2023/06/30 10:03:02;;;;;;;2.58;1.20;;;;;;;24.62;93.74;101432.63;5224676;28;20029;-72
2023/06/30 10:05:33;;;;;;;4.40;1.45;;;;;;;24.93;93.96;101436.75;5224672;28;20030;-71
2023/06/30 10:08:04;;;;;;;6.15;1.40;;;;;;;25.61;89.19;101435.69;5222750;28;20033;-71
2023/06/30 10:10:35;;;;;;;2.72;1.10;;;;;;;26.23;80.04;101429.94;5224412;28;20516;-71
2023/06/30 10:13:06;;;;;;;5.38;1.48;;;;;;;26.14;96.80;101433.41;5224651;28;20025;-71
2023/06/30 10:15:37;;;;;;;6.38;1.70;;;;;;;26.06;88.40;101430.03;5224150;28;20110;-72
2023/06/30 10:18:10;;;;;;;5.28;1.35;;;;;;;26.33;74.23;101432.00;5233419;28;20032;-72
2023/06/30 10:20:41;;;;;;;5.93;1.33;;;;;;;26.58;67.56;101440.56;5226621;28;20375;-72
2023/06/30 10:23:14;;;;;;;4.55;1.88;;;;;;;26.91;78.27;101438.72;5224541;28;20087;-72
2023/06/30 10:25:46;;;;;;;6.07;1.30;;;;;;;26.65;72.47;101432.09;5223637;28;20452;-72
2023/06/30 10:28:16;;;;;;;4.10;1.50;;;;;;;26.64;75.43;101426.84;5223755;28;20100;-72
2023/06/30 10:30:49;;;;;;;3.97;1.23;;;;;;;26.90;71.39;101426.00;5216177;28;20179;-71
2023/06/30 10:33:21;;;;;;;7.00;1.40;;;;;;;26.52;74.37;101419.59;5219496;28;20566;-71
2023/06/30 10:35:52;;;;;;;5.88;1.52;;;;;;;26.34;70.83;101428.16;5222969;28;20501;-71
2023/06/30 10:38:23;;;;;;;5.30;1.30;;;;;;;26.12;68.54;101425.41;5222664;28;20115;-71
2023/06/30 10:41:17;;;;;;;3.47;1.55;;;;;;;25.98;79.09;101407.66;5223705;28;20025;-72
2023/06/30 10:44:07;;;;;;;3.90;1.50;;;;;;;25.58;83.39;101409.53;5223309;28;20738;-71
2023/06/30 10:46:56;;;;;;;3.40;1.65;;;;;;;25.68;81.96;101410.78;5222780;28;20644;-72
2023/06/30 10:49:29;;;;;;;4.07;1.52;;;;;;;25.49;82.44;101400.06;5222274;28;20104;-72
2023/06/30 10:52:02;;;;;;;5.55;1.20;;;;;;;25.30;92.49;101405.03;5219234;28;20062;-72
2023/06/30 10:54:52;;;;;;;5.15;1.95;;;;;;;25.62;81.90;101396.16;5222952;28;20662;-72
2023/06/30 10:57:25;;;;;;;3.70;1.48;;;;;;;25.72;79.51;101398.19;5220252;28;20509;-71
2023/06/30 11:00:06;;;;;;;3.72;1.50;;;;;;;25.66;87.77;101396.47;5222521;28;20474;-71
2023/06/30 11:02:45;;;;;;;7.53;1.63;;;;;;;25.98;81.91;101394.72;5223014;28;20091;-71
2023/06/30 11:05:35;;;;;;;5.88;1.67;;;;;;;26.44;68.53;101395.28;5222962;28;20020;-72
2023/06/30 11:08:07;;;;;;;4.75;1.60;;;;;;;26.34;65.91;101387.72;5221923;28;20040;-71
2023/06/30 11:10:45;;;;;;;4.78;1.45;;;;;;;26.19;73.12;101395.81;5220841;28;20032;-71
2023/06/30 11:13:36;;;;;;;4.05;1.85;;;;;;;25.76;81.00;101385.66;5223130;28;20104;-71
2023/06/30 11:16:08;;;;;;;6.93;2.00;;;;;;;25.64;84.94;101395.88;5220834;28;20028;-71
2023/06/30 11:18:38;;;;;;;3.55;1.35;;;;;;;25.50;83.67;101388.03;5221718;28;20031;-71
2023/06/30 11:21:09;;;;;;;7.07;1.40;;;;;;;25.39;90.06;101383.44;5222862;28;20386;-71
2023/06/30 11:23:42;;;;;;;5.10;1.40;;;;;;;25.40;87.73;101393.34;5218421;28;20017;-71
2023/06/30 11:26:16;;;;;;;4.80;1.50;;;;;;;25.65;86.39;101387.38;5222918;28;20083;-72
2023/06/30 11:28:48;;;;;;;3.97;1.30;;;;;;;25.75;83.90;101383.97;5223942;28;20033;-71
2023/06/30 11:31:18;;;;;;;3.40;1.40;;;;;;;25.53;77.63;101382.00;5222149;28;20036;-71
2023/06/30 11:33:49;;;;;;;3.92;1.30;;;;;;;25.18;92.48;101385.03;5222226;28;20402;-71
2023/06/30 11:36:19;;;;;;;6.22;1.42;;;;;;;24.44;85.37;101379.59;5221511;28;20642;-71